sensor_id;sensor_type;location;lat;lon;timestamp;P1;durP1;ratioP1;P2;durP2;ratioP2
26600;SDS011;14241;49.260;10.496;2024-03-08T00:00:00;34.17;;;24.35;;
26600;SDS011;14241;49.260;10.496;2024-03-08T00:02:34;31.45;;;24.63;;
26600;SDS011;14241;49.260;10.496;2024-03-08T00:04:59;28.95;;;23.92;;
26600;SDS011;14241;49.260;10.496;2024-03-08T00:07:25;33.92;;;25.60;;
26600;SDS011;14241;49.260;10.496;2024-03-08T00:09:52;35.60;;;25.52;;
26600;SDS011;14241;49.260;10.496;2024-03-08T00:12:18;34.13;;;25.65;;
26600;SDS011;14241;49.260;10.496;2024-03-08T00:14:43;33.03;;;25.65;;
26600;SDS011;14241;49.260;10.496;2024-03-08T00:17:10;32.45;;;24.52;;
26600;SDS011;14241;49.260;10.496;2024-03-08T00:19:35;31.08;;;25.05;;
26600;SDS011;14241;49.260;10.496;2024-03-08T00:22:00;31.58;;;24.67;;
26600;SDS011;14241;49.260;10.496;2024-03-08T00:24:25;36.00;;;26.50;;
26600;SDS011;14241;49.260;10.496;2024-03-08T00:26:51;32.53;;;26.67;;
26600;SDS011;14241;49.260;10.496;2024-03-08T00:29:16;32.50;;;19.33;;
26600;SDS011;14241;49.260;10.496;2024-03-08T00:31:41;31.83;;;25.05;;
26600;SDS011;14241;49.260;10.496;2024-03-08T00:34:06;36.95;;;18.98;;
26600;SDS011;14241;49.260;10.496;2024-03-08T00:36:32;34.15;;;17.88;;
26600;SDS011;14241;49.260;10.496;2024-03-08T00:38:57;31.35;;;16.85;;
26600;SDS011;14241;49.260;10.496;2024-03-08T00:41:23;31.92;;;26.20;;
26600;SDS011;14241;49.260;10.496;2024-03-08T00:43:51;38.40;;;26.20;;
26600;SDS011;14241;49.260;10.496;2024-03-08T00:46:16;34.97;;;26.77;;
26600;SDS011;14241;49.260;10.496;2024-03-08T00:48:42;33.53;;;25.48;;
26600;SDS011;14241;49.260;10.496;2024-03-08T00:51:08;34.55;;;25.75;;
26600;SDS011;14241;49.260;10.496;2024-03-08T00:53:33;35.13;;;26.08;;
26600;SDS011;14241;49.260;10.496;2024-03-08T00:55:59;34.05;;;25.05;;
26600;SDS011;14241;49.260;10.496;2024-03-08T00:58:24;34.90;;;27.75;;
26600;SDS011;14241;49.260;10.496;2024-03-08T01:00:49;31.17;;;25.65;;
26600;SDS011;14241;49.260;10.496;2024-03-08T01:03:15;35.15;;;26.75;;
26600;SDS011;14241;49.260;10.496;2024-03-08T01:05:40;31.98;;;25.90;;
26600;SDS011;14241;49.260;10.496;2024-03-08T01:08:05;35.58;;;27.58;;
26600;SDS011;14241;49.260;10.496;2024-03-08T01:10:31;35.70;;;27.73;;
26600;SDS011;14241;49.260;10.496;2024-03-08T01:12:56;35.10;;;27.20;;
26600;SDS011;14241;49.260;10.496;2024-03-08T01:15:22;33.67;;;26.17;;
26600;SDS011;14241;49.260;10.496;2024-03-08T01:17:47;32.42;;;26.52;;
26600;SDS011;14241;49.260;10.496;2024-03-08T01:20:13;33.25;;;26.60;;
26600;SDS011;14241;49.260;10.496;2024-03-08T01:22:39;35.42;;;26.83;;
26600;SDS011;14241;49.260;10.496;2024-03-08T01:25:04;35.40;;;27.98;;
26600;SDS011;14241;49.260;10.496;2024-03-08T01:27:30;37.30;;;27.83;;
26600;SDS011;14241;49.260;10.496;2024-03-08T01:29:55;36.67;;;27.77;;
26600;SDS011;14241;49.260;10.496;2024-03-08T01:32:20;34.72;;;27.30;;
26600;SDS011;14241;49.260;10.496;2024-03-08T01:34:48;38.65;;;29.15;;
26600;SDS011;14241;49.260;10.496;2024-03-08T01:37:13;37.63;;;27.67;;
26600;SDS011;14241;49.260;10.496;2024-03-08T01:39:39;36.70;;;28.30;;
26600;SDS011;14241;49.260;10.496;2024-03-08T01:42:05;37.65;;;28.90;;
26600;SDS011;14241;49.260;10.496;2024-03-08T01:44:30;36.83;;;28.42;;
26600;SDS011;14241;49.260;10.496;2024-03-08T01:46:56;33.28;;;27.20;;
26600;SDS011;14241;49.260;10.496;2024-03-08T01:49:21;37.38;;;29.00;;
26600;SDS011;14241;49.260;10.496;2024-03-08T01:51:48;36.35;;;27.95;;
26600;SDS011;14241;49.260;10.496;2024-03-08T01:54:14;36.95;;;28.60;;
26600;SDS011;14241;49.260;10.496;2024-03-08T01:56:40;35.90;;;28.05;;
26600;SDS011;14241;49.260;10.496;2024-03-08T01:59:05;35.67;;;27.95;;
26600;SDS011;14241;49.260;10.496;2024-03-08T02:01:32;36.45;;;28.58;;
26600;SDS011;14241;49.260;10.496;2024-03-08T02:03:58;36.20;;;28.88;;
26600;SDS011;14241;49.260;10.496;2024-03-08T02:06:23;37.97;;;29.40;;
26600;SDS011;14241;49.260;10.496;2024-03-08T02:08:49;38.55;;;29.35;;
26600;SDS011;14241;49.260;10.496;2024-03-08T02:11:14;36.35;;;28.73;;
26600;SDS011;14241;49.260;10.496;2024-03-08T02:13:41;38.10;;;29.08;;
26600;SDS011;14241;49.260;10.496;2024-03-08T02:16:06;37.50;;;28.45;;
26600;SDS011;14241;49.260;10.496;2024-03-08T02:18:33;38.42;;;29.67;;
26600;SDS011;14241;49.260;10.496;2024-03-08T02:21:00;38.45;;;29.85;;
26600;SDS011;14241;49.260;10.496;2024-03-08T02:23:26;38.17;;;29.63;;
26600;SDS011;14241;49.260;10.496;2024-03-08T02:25:51;38.97;;;29.45;;
26600;SDS011;14241;49.260;10.496;2024-03-08T02:28:16;40.03;;;29.98;;
26600;SDS011;14241;49.260;10.496;2024-03-08T02:30:44;41.55;;;30.45;;
26600;SDS011;14241;49.260;10.496;2024-03-08T02:33:09;43.10;;;22.70;;
26600;SDS011;14241;49.260;10.496;2024-03-08T02:35:35;37.17;;;28.98;;
26600;SDS011;14241;49.260;10.496;2024-03-08T02:38:00;37.47;;;30.13;;
26600;SDS011;14241;49.260;10.496;2024-03-08T02:40:26;38.80;;;29.88;;
26600;SDS011;14241;49.260;10.496;2024-03-08T02:42:51;40.85;;;31.40;;
26600;SDS011;14241;49.260;10.496;2024-03-08T02:45:16;38.25;;;24.95;;
26600;SDS011;14241;49.260;10.496;2024-03-08T02:47:42;34.78;;;18.58;;
26600;SDS011;14241;49.260;10.496;2024-03-08T02:50:07;34.40;;;18.80;;
26600;SDS011;14241;49.260;10.496;2024-03-08T02:52:33;39.70;;;20.20;;
26600;SDS011;14241;49.260;10.496;2024-03-08T02:54:58;35.72;;;22.05;;
26600;SDS011;14241;49.260;10.496;2024-03-08T02:57:24;40.25;;;22.02;;
26600;SDS011;14241;49.260;10.496;2024-03-08T02:59:49;35.13;;;22.15;;
26600;SDS011;14241;49.260;10.496;2024-03-08T03:02:15;39.60;;;22.40;;
26600;SDS011;14241;49.260;10.496;2024-03-08T03:04:41;42.72;;;22.92;;
26600;SDS011;14241;49.260;10.496;2024-03-08T03:07:06;41.10;;;23.58;;
26600;SDS011;14241;49.260;10.496;2024-03-08T03:09:32;39.50;;;22.58;;
26600;SDS011;14241;49.260;10.496;2024-03-08T03:11:58;31.48;;;18.40;;
26600;SDS011;14241;49.260;10.496;2024-03-08T03:14:23;43.33;;;22.52;;
26600;SDS011;14241;49.260;10.496;2024-03-08T03:16:49;46.05;;;25.83;;
26600;SDS011;14241;49.260;10.496;2024-03-08T03:19:15;39.03;;;21.77;;
26600;SDS011;14241;49.260;10.496;2024-03-08T03:21:40;40.30;;;21.65;;
26600;SDS011;14241;49.260;10.496;2024-03-08T03:24:08;46.63;;;25.05;;
26600;SDS011;14241;49.260;10.496;2024-03-08T03:26:38;43.10;;;25.73;;
26600;SDS011;14241;49.260;10.496;2024-03-08T03:29:06;41.72;;;20.63;;
26600;SDS011;14241;49.260;10.496;2024-03-08T03:31:33;36.92;;;21.73;;
26600;SDS011;14241;49.260;10.496;2024-03-08T03:33:59;43.97;;;27.20;;
26600;SDS011;14241;49.260;10.496;2024-03-08T03:36:27;43.40;;;23.42;;
26600;SDS011;14241;49.260;10.496;2024-03-08T03:38:53;33.47;;;19.15;;
26600;SDS011;14241;49.260;10.496;2024-03-08T03:41:29;40.38;;;22.23;;
26600;SDS011;14241;49.260;10.496;2024-03-08T03:43:54;45.22;;;24.08;;
26600;SDS011;14241;49.260;10.496;2024-03-08T03:46:20;39.95;;;22.10;;
26600;SDS011;14241;49.260;10.496;2024-03-08T03:48:45;40.47;;;20.27;;
26600;SDS011;14241;49.260;10.496;2024-03-08T03:51:11;43.20;;;22.20;;
26600;SDS011;14241;49.260;10.496;2024-03-08T03:53:37;36.97;;;20.55;;
26600;SDS011;14241;49.260;10.496;2024-03-08T03:56:02;38.00;;;23.35;;
26600;SDS011;14241;49.260;10.496;2024-03-08T03:58:27;39.63;;;21.05;;
26600;SDS011;14241;49.260;10.496;2024-03-08T04:00:52;35.75;;;17.10;;
26600;SDS011;14241;49.260;10.496;2024-03-08T04:03:18;40.88;;;19.92;;
26600;SDS011;14241;49.260;10.496;2024-03-08T04:05:44;37.33;;;21.63;;
26600;SDS011;14241;49.260;10.496;2024-03-08T04:08:11;40.78;;;23.75;;
26600;SDS011;14241;49.260;10.496;2024-03-08T04:10:36;36.95;;;21.08;;
26600;SDS011;14241;49.260;10.496;2024-03-08T04:13:01;44.45;;;26.33;;
26600;SDS011;14241;49.260;10.496;2024-03-08T04:15:28;38.63;;;22.02;;
26600;SDS011;14241;49.260;10.496;2024-03-08T04:17:53;40.40;;;21.17;;
26600;SDS011;14241;49.260;10.496;2024-03-08T04:20:19;40.75;;;22.63;;
26600;SDS011;14241;49.260;10.496;2024-03-08T04:22:44;33.13;;;16.73;;
26600;SDS011;14241;49.260;10.496;2024-03-08T04:25:12;33.25;;;20.13;;
26600;SDS011;14241;49.260;10.496;2024-03-08T04:27:37;37.05;;;19.60;;
26600;SDS011;14241;49.260;10.496;2024-03-08T04:30:03;37.20;;;20.02;;
26600;SDS011;14241;49.260;10.496;2024-03-08T04:32:29;33.45;;;15.68;;
26600;SDS011;14241;49.260;10.496;2024-03-08T04:34:57;39.13;;;21.40;;
26600;SDS011;14241;49.260;10.496;2024-03-08T04:37:22;37.90;;;20.48;;
26600;SDS011;14241;49.260;10.496;2024-03-08T04:39:48;43.60;;;23.10;;
26600;SDS011;14241;49.260;10.496;2024-03-08T04:42:13;33.78;;;16.00;;
26600;SDS011;14241;49.260;10.496;2024-03-08T04:44:39;37.65;;;18.27;;
26600;SDS011;14241;49.260;10.496;2024-03-08T04:47:04;35.10;;;19.63;;
26600;SDS011;14241;49.260;10.496;2024-03-08T04:49:31;38.42;;;18.08;;
26600;SDS011;14241;49.260;10.496;2024-03-08T04:51:56;31.02;;;16.25;;
26600;SDS011;14241;49.260;10.496;2024-03-08T04:54:22;44.97;;;21.90;;
26600;SDS011;14241;49.260;10.496;2024-03-08T04:56:47;36.85;;;19.30;;
26600;SDS011;14241;49.260;10.496;2024-03-08T04:59:12;35.45;;;20.08;;
26600;SDS011;14241;49.260;10.496;2024-03-08T05:01:38;39.78;;;20.15;;
26600;SDS011;14241;49.260;10.496;2024-03-08T05:04:04;39.55;;;21.38;;
26600;SDS011;14241;49.260;10.496;2024-03-08T05:06:30;36.58;;;20.17;;
26600;SDS011;14241;49.260;10.496;2024-03-08T05:08:56;36.25;;;17.52;;
26600;SDS011;14241;49.260;10.496;2024-03-08T05:11:21;35.15;;;17.27;;
26600;SDS011;14241;49.260;10.496;2024-03-08T05:13:46;38.67;;;21.38;;
26600;SDS011;14241;49.260;10.496;2024-03-08T05:16:11;35.65;;;18.98;;
26600;SDS011;14241;49.260;10.496;2024-03-08T05:18:38;32.67;;;14.30;;
26600;SDS011;14241;49.260;10.496;2024-03-08T05:21:03;40.10;;;20.85;;
26600;SDS011;14241;49.260;10.496;2024-03-08T05:23:29;46.33;;;21.20;;
26600;SDS011;14241;49.260;10.496;2024-03-08T05:25:55;43.58;;;19.58;;
26600;SDS011;14241;49.260;10.496;2024-03-08T05:28:20;36.58;;;19.20;;
26600;SDS011;14241;49.260;10.496;2024-03-08T05:30:46;45.33;;;23.45;;
26600;SDS011;14241;49.260;10.496;2024-03-08T05:33:11;42.58;;;24.40;;
26600;SDS011;14241;49.260;10.496;2024-03-08T05:35:39;41.97;;;26.13;;
26600;SDS011;14241;49.260;10.496;2024-03-08T05:38:05;39.20;;;18.67;;
26600;SDS011;14241;49.260;10.496;2024-03-08T05:40:30;41.17;;;20.33;;
26600;SDS011;14241;49.260;10.496;2024-03-08T05:42:57;34.83;;;17.92;;
26600;SDS011;14241;49.260;10.496;2024-03-08T05:45:23;36.42;;;18.35;;
26600;SDS011;14241;49.260;10.496;2024-03-08T05:47:50;37.45;;;20.92;;
26600;SDS011;14241;49.260;10.496;2024-03-08T05:50:17;35.65;;;17.17;;
26600;SDS011;14241;49.260;10.496;2024-03-08T05:52:42;37.00;;;18.25;;
26600;SDS011;14241;49.260;10.496;2024-03-08T05:55:08;44.42;;;22.10;;
26600;SDS011;14241;49.260;10.496;2024-03-08T05:57:35;31.55;;;16.60;;
26600;SDS011;14241;49.260;10.496;2024-03-08T06:00:03;41.05;;;24.23;;
26600;SDS011;14241;49.260;10.496;2024-03-08T06:02:28;42.88;;;22.35;;
26600;SDS011;14241;49.260;10.496;2024-03-08T06:04:54;39.45;;;18.15;;
26600;SDS011;14241;49.260;10.496;2024-03-08T06:07:19;42.65;;;24.30;;
26600;SDS011;14241;49.260;10.496;2024-03-08T06:09:45;43.63;;;19.70;;
26600;SDS011;14241;49.260;10.496;2024-03-08T06:12:11;48.63;;;24.70;;
26600;SDS011;14241;49.260;10.496;2024-03-08T06:14:37;38.83;;;19.33;;
26600;SDS011;14241;49.260;10.496;2024-03-08T06:17:03;39.53;;;21.35;;
26600;SDS011;14241;49.260;10.496;2024-03-08T06:19:30;36.47;;;18.52;;
26600;SDS011;14241;49.260;10.496;2024-03-08T06:21:55;35.58;;;17.73;;
26600;SDS011;14241;49.260;10.496;2024-03-08T06:24:20;41.33;;;23.60;;
26600;SDS011;14241;49.260;10.496;2024-03-08T06:26:46;38.97;;;21.85;;
26600;SDS011;14241;49.260;10.496;2024-03-08T06:29:11;35.72;;;19.30;;
26600;SDS011;14241;49.260;10.496;2024-03-08T06:31:37;29.60;;;17.45;;
26600;SDS011;14241;49.260;10.496;2024-03-08T06:34:04;41.28;;;23.38;;
26600;SDS011;14241;49.260;10.496;2024-03-08T06:36:32;41.45;;;22.67;;
26600;SDS011;14241;49.260;10.496;2024-03-08T06:38:57;42.58;;;24.90;;
26600;SDS011;14241;49.260;10.496;2024-03-08T06:41:23;40.13;;;20.25;;
26600;SDS011;14241;49.260;10.496;2024-03-08T06:43:48;45.90;;;24.75;;
26600;SDS011;14241;49.260;10.496;2024-03-08T06:46:16;42.63;;;24.33;;
26600;SDS011;14241;49.260;10.496;2024-03-08T06:48:42;35.80;;;19.55;;
26600;SDS011;14241;49.260;10.496;2024-03-08T06:51:08;38.08;;;22.80;;
26600;SDS011;14241;49.260;10.496;2024-03-08T06:53:33;41.50;;;26.65;;
26600;SDS011;14241;49.260;10.496;2024-03-08T06:56:02;41.92;;;34.00;;
26600;SDS011;14241;49.260;10.496;2024-03-08T06:58:27;43.92;;;21.52;;
26600;SDS011;14241;49.260;10.496;2024-03-08T07:00:53;45.67;;;33.90;;
26600;SDS011;14241;49.260;10.496;2024-03-08T07:03:18;41.85;;;30.08;;
26600;SDS011;14241;49.260;10.496;2024-03-08T07:05:44;42.72;;;34.92;;
26600;SDS011;14241;49.260;10.496;2024-03-08T07:08:09;40.70;;;34.85;;
26600;SDS011;14241;49.260;10.496;2024-03-08T07:10:35;41.25;;;22.65;;
26600;SDS011;14241;49.260;10.496;2024-03-08T07:13:02;41.90;;;33.40;;
26600;SDS011;14241;49.260;10.496;2024-03-08T07:15:27;40.63;;;21.67;;
26600;SDS011;14241;49.260;10.496;2024-03-08T07:17:53;49.83;;;36.35;;
26600;SDS011;14241;49.260;10.496;2024-03-08T07:20:18;43.25;;;33.95;;
26600;SDS011;14241;49.260;10.496;2024-03-08T07:22:47;46.42;;;34.92;;
26600;SDS011;14241;49.260;10.496;2024-03-08T07:25:13;44.10;;;33.85;;
26600;SDS011;14241;49.260;10.496;2024-03-08T07:27:52;42.63;;;32.92;;
26600;SDS011;14241;49.260;10.496;2024-03-08T07:30:18;45.22;;;35.28;;
26600;SDS011;14241;49.260;10.496;2024-03-08T07:33:02;41.40;;;33.40;;
26600;SDS011;14241;49.260;10.496;2024-03-08T07:35:28;44.22;;;33.38;;
26600;SDS011;14241;49.260;10.496;2024-03-08T07:37:53;42.70;;;32.88;;
26600;SDS011;14241;49.260;10.496;2024-03-08T07:40:20;42.05;;;32.13;;
26600;SDS011;14241;49.260;10.496;2024-03-08T07:42:45;42.50;;;32.65;;
26600;SDS011;14241;49.260;10.496;2024-03-08T07:45:11;42.90;;;31.88;;
26600;SDS011;14241;49.260;10.496;2024-03-08T07:47:38;42.53;;;30.63;;
26600;SDS011;14241;49.260;10.496;2024-03-08T07:50:03;39.30;;;33.03;;
26600;SDS011;14241;49.260;10.496;2024-03-08T07:52:28;39.90;;;30.30;;
26600;SDS011;14241;49.260;10.496;2024-03-08T07:54:54;40.65;;;31.08;;
26600;SDS011;14241;49.260;10.496;2024-03-08T07:57:19;38.92;;;31.40;;
26600;SDS011;14241;49.260;10.496;2024-03-08T07:59:45;40.83;;;32.13;;
26600;SDS011;14241;49.260;10.496;2024-03-08T08:02:10;37.03;;;30.52;;
26600;SDS011;14241;49.260;10.496;2024-03-08T08:04:36;40.30;;;29.40;;
26600;SDS011;14241;49.260;10.496;2024-03-08T08:07:01;37.20;;;29.05;;
26600;SDS011;14241;49.260;10.496;2024-03-08T08:09:27;34.78;;;27.25;;
26600;SDS011;14241;49.260;10.496;2024-03-08T08:12:02;37.53;;;28.67;;
26600;SDS011;14241;49.260;10.496;2024-03-08T08:14:28;36.97;;;28.95;;
26600;SDS011;14241;49.260;10.496;2024-03-08T08:16:54;36.80;;;30.35;;
26600;SDS011;14241;49.260;10.496;2024-03-08T08:19:21;36.75;;;26.88;;
26600;SDS011;14241;49.260;10.496;2024-03-08T08:21:46;35.45;;;27.13;;
26600;SDS011;14241;49.260;10.496;2024-03-08T08:24:11;34.95;;;26.00;;
26600;SDS011;14241;49.260;10.496;2024-03-08T08:26:37;35.80;;;27.00;;
26600;SDS011;14241;49.260;10.496;2024-03-08T08:29:02;37.50;;;27.85;;
26600;SDS011;14241;49.260;10.496;2024-03-08T08:31:27;34.67;;;26.55;;
26600;SDS011;14241;49.260;10.496;2024-03-08T08:33:53;31.95;;;26.70;;
26600;SDS011;14241;49.260;10.496;2024-03-08T08:36:23;32.10;;;26.23;;
26600;SDS011;14241;49.260;10.496;2024-03-08T08:38:49;32.72;;;25.90;;
26600;SDS011;14241;49.260;10.496;2024-03-08T08:41:14;30.75;;;25.65;;
26600;SDS011;14241;49.260;10.496;2024-03-08T08:43:41;31.05;;;25.17;;
26600;SDS011;14241;49.260;10.496;2024-03-08T08:46:09;32.47;;;24.40;;
26600;SDS011;14241;49.260;10.496;2024-03-08T08:48:34;33.92;;;25.25;;
26600;SDS011;14241;49.260;10.496;2024-03-08T08:51:00;29.75;;;23.27;;
26600;SDS011;14241;49.260;10.496;2024-03-08T08:53:25;30.98;;;24.23;;
26600;SDS011;14241;49.260;10.496;2024-03-08T08:55:50;28.83;;;23.63;;
26600;SDS011;14241;49.260;10.496;2024-03-08T08:58:17;30.83;;;23.27;;
26600;SDS011;14241;49.260;10.496;2024-03-08T09:00:43;30.50;;;23.60;;
26600;SDS011;14241;49.260;10.496;2024-03-08T09:03:09;31.25;;;23.27;;
26600;SDS011;14241;49.260;10.496;2024-03-08T09:05:36;30.33;;;23.05;;
26600;SDS011;14241;49.260;10.496;2024-03-08T09:08:02;28.75;;;23.00;;
26600;SDS011;14241;49.260;10.496;2024-03-08T09:10:28;31.13;;;23.42;;
26600;SDS011;14241;49.260;10.496;2024-03-08T09:12:53;31.02;;;22.75;;
26600;SDS011;14241;49.260;10.496;2024-03-08T09:15:19;29.83;;;22.75;;
26600;SDS011;14241;49.260;10.496;2024-03-08T09:17:46;30.30;;;21.63;;
26600;SDS011;14241;49.260;10.496;2024-03-08T09:20:11;29.02;;;22.25;;
26600;SDS011;14241;49.260;10.496;2024-03-08T09:22:40;27.58;;;21.25;;
26600;SDS011;14241;49.260;10.496;2024-03-08T09:25:05;25.45;;;20.92;;
26600;SDS011;14241;49.260;10.496;2024-03-08T09:27:32;28.90;;;20.85;;
26600;SDS011;14241;49.260;10.496;2024-03-08T09:29:58;27.98;;;20.92;;
26600;SDS011;14241;49.260;10.496;2024-03-08T09:32:24;27.70;;;21.42;;
26600;SDS011;14241;49.260;10.496;2024-03-08T09:34:49;27.45;;;21.52;;
26600;SDS011;14241;49.260;10.496;2024-03-08T09:37:15;26.15;;;21.00;;
26600;SDS011;14241;49.260;10.496;2024-03-08T09:39:40;27.05;;;19.33;;
26600;SDS011;14241;49.260;10.496;2024-03-08T09:42:06;25.13;;;20.02;;
26600;SDS011;14241;49.260;10.496;2024-03-08T09:44:31;27.80;;;21.08;;
26600;SDS011;14241;49.260;10.496;2024-03-08T09:46:57;27.42;;;20.52;;
26600;SDS011;14241;49.260;10.496;2024-03-08T09:49:23;29.42;;;20.95;;
26600;SDS011;14241;49.260;10.496;2024-03-08T09:51:48;25.67;;;20.13;;
26600;SDS011;14241;49.260;10.496;2024-03-08T09:54:15;25.23;;;18.50;;
26600;SDS011;14241;49.260;10.496;2024-03-08T09:56:42;25.92;;;19.40;;
26600;SDS011;14241;49.260;10.496;2024-03-08T09:59:09;23.95;;;19.38;;
26600;SDS011;14241;49.260;10.496;2024-03-08T10:01:53;24.55;;;19.52;;
26600;SDS011;14241;49.260;10.496;2024-03-08T10:04:22;25.63;;;18.73;;
26600;SDS011;14241;49.260;10.496;2024-03-08T10:06:47;23.33;;;18.35;;
26600;SDS011;14241;49.260;10.496;2024-03-08T10:09:12;26.13;;;18.85;;
26600;SDS011;14241;49.260;10.496;2024-03-08T10:11:39;25.77;;;18.50;;
26600;SDS011;14241;49.260;10.496;2024-03-08T10:14:05;24.15;;;17.65;;
26600;SDS011;14241;49.260;10.496;2024-03-08T10:16:31;23.45;;;18.08;;
26600;SDS011;14241;49.260;10.496;2024-03-08T10:18:56;22.73;;;16.63;;
26600;SDS011;14241;49.260;10.496;2024-03-08T10:21:22;21.13;;;17.42;;
26600;SDS011;14241;49.260;10.496;2024-03-08T10:23:48;22.33;;;16.42;;
26600;SDS011;14241;49.260;10.496;2024-03-08T10:26:13;19.65;;;15.68;;
26600;SDS011;14241;49.260;10.496;2024-03-08T10:28:44;22.35;;;15.85;;
26600;SDS011;14241;49.260;10.496;2024-03-08T10:31:09;22.17;;;16.73;;
26600;SDS011;14241;49.260;10.496;2024-03-08T10:33:35;21.92;;;16.77;;
26600;SDS011;14241;49.260;10.496;2024-03-08T10:36:00;21.90;;;16.75;;
26600;SDS011;14241;49.260;10.496;2024-03-08T10:38:26;22.35;;;16.05;;
26600;SDS011;14241;49.260;10.496;2024-03-08T10:40:51;23.48;;;17.77;;
26600;SDS011;14241;49.260;10.496;2024-03-08T10:43:24;22.20;;;16.02;;
26600;SDS011;14241;49.260;10.496;2024-03-08T10:45:52;23.90;;;15.45;;
26600;SDS011;14241;49.260;10.496;2024-03-08T10:48:27;21.85;;;15.57;;
26600;SDS011;14241;49.260;10.496;2024-03-08T10:50:53;20.55;;;16.45;;
26600;SDS011;14241;49.260;10.496;2024-03-08T10:53:19;23.33;;;16.50;;
26600;SDS011;14241;49.260;10.496;2024-03-08T10:55:46;20.42;;;15.45;;
26600;SDS011;14241;49.260;10.496;2024-03-08T10:58:12;23.33;;;16.20;;
26600;SDS011;14241;49.260;10.496;2024-03-08T11:00:38;22.73;;;16.35;;
26600;SDS011;14241;49.260;10.496;2024-03-08T11:03:03;20.30;;;15.18;;
26600;SDS011;14241;49.260;10.496;2024-03-08T11:08:01;20.98;;;15.60;;
26600;SDS011;14241;49.260;10.496;2024-03-08T11:10:26;20.10;;;15.27;;
26600;SDS011;14241;49.260;10.496;2024-03-08T11:12:53;21.85;;;16.17;;
26600;SDS011;14241;49.260;10.496;2024-03-08T11:15:18;19.52;;;14.82;;
26600;SDS011;14241;49.260;10.496;2024-03-08T11:17:47;18.02;;;14.45;;
26600;SDS011;14241;49.260;10.496;2024-03-08T11:20:23;17.25;;;13.55;;
26600;SDS011;14241;49.260;10.496;2024-03-08T11:22:53;19.20;;;14.00;;
26600;SDS011;14241;49.260;10.496;2024-03-08T11:25:31;18.85;;;14.27;;
26600;SDS011;14241;49.260;10.496;2024-03-08T11:28:14;18.90;;;13.90;;
26600;SDS011;14241;49.260;10.496;2024-03-08T11:31:24;25.42;;;14.15;;
26600;SDS011;14241;49.260;10.496;2024-03-08T11:33:31;21.80;;;14.85;;
26600;SDS011;14241;49.260;10.496;2024-03-08T11:38:45;20.05;;;14.65;;
26600;SDS011;14241;49.260;10.496;2024-03-08T11:41:14;18.65;;;13.77;;
26600;SDS011;14241;49.260;10.496;2024-03-08T11:43:39;17.85;;;14.00;;
26600;SDS011;14241;49.260;10.496;2024-03-08T11:46:10;19.27;;;13.93;;
26600;SDS011;14241;49.260;10.496;2024-03-08T11:48:35;17.38;;;13.27;;
26600;SDS011;14241;49.260;10.496;2024-03-08T11:51:03;23.08;;;14.55;;
26600;SDS011;14241;49.260;10.496;2024-03-08T11:53:30;17.85;;;14.38;;
26600;SDS011;14241;49.260;10.496;2024-03-08T11:55:55;18.38;;;14.00;;
26600;SDS011;14241;49.260;10.496;2024-03-08T11:58:29;18.25;;;13.98;;
26600;SDS011;14241;49.260;10.496;2024-03-08T12:01:02;20.77;;;13.00;;
26600;SDS011;14241;49.260;10.496;2024-03-08T12:03:27;18.88;;;13.05;;
26600;SDS011;14241;49.260;10.496;2024-03-08T12:05:57;18.27;;;13.27;;
26600;SDS011;14241;49.260;10.496;2024-03-08T12:08:22;20.25;;;14.93;;
26600;SDS011;14241;49.260;10.496;2024-03-08T12:10:47;17.58;;;13.43;;
26600;SDS011;14241;49.260;10.496;2024-03-08T12:13:13;18.52;;;12.98;;
26600;SDS011;14241;49.260;10.496;2024-03-08T12:15:39;16.58;;;12.32;;
26600;SDS011;14241;49.260;10.496;2024-03-08T12:18:05;18.73;;;13.07;;
26600;SDS011;14241;49.260;10.496;2024-03-08T12:20:30;15.35;;;12.02;;
26600;SDS011;14241;49.260;10.496;2024-03-08T12:22:56;16.98;;;12.13;;
26600;SDS011;14241;49.260;10.496;2024-03-08T12:25:22;14.95;;;11.50;;
26600;SDS011;14241;49.260;10.496;2024-03-08T12:27:47;15.82;;;11.73;;
26600;SDS011;14241;49.260;10.496;2024-03-08T12:30:23;15.82;;;10.60;;
26600;SDS011;14241;49.260;10.496;2024-03-08T12:32:58;15.27;;;11.82;;
26600;SDS011;14241;49.260;10.496;2024-03-08T12:35:24;15.98;;;11.63;;
26600;SDS011;14241;49.260;10.496;2024-03-08T12:37:53;15.40;;;10.73;;
26600;SDS011;14241;49.260;10.496;2024-03-08T12:40:19;13.55;;;10.07;;
26600;SDS011;14241;49.260;10.496;2024-03-08T12:42:50;15.30;;;10.52;;
26600;SDS011;14241;49.260;10.496;2024-03-08T12:45:15;17.25;;;12.73;;
26600;SDS011;14241;49.260;10.496;2024-03-08T12:47:41;13.75;;;10.15;;
26600;SDS011;14241;49.260;10.496;2024-03-08T12:50:07;14.73;;;10.80;;
26600;SDS011;14241;49.260;10.496;2024-03-08T12:52:33;15.05;;;11.40;;
26600;SDS011;14241;49.260;10.496;2024-03-08T12:54:59;14.70;;;10.85;;
26600;SDS011;14241;49.260;10.496;2024-03-08T12:57:28;15.57;;;10.80;;
26600;SDS011;14241;49.260;10.496;2024-03-08T12:59:54;14.95;;;11.75;;
26600;SDS011;14241;49.260;10.496;2024-03-08T13:02:19;16.83;;;11.98;;
26600;SDS011;14241;49.260;10.496;2024-03-08T13:04:45;19.25;;;11.40;;
26600;SDS011;14241;49.260;10.496;2024-03-08T13:07:10;15.32;;;10.98;;
26600;SDS011;14241;49.260;10.496;2024-03-08T13:09:36;15.10;;;11.07;;
26600;SDS011;14241;49.260;10.496;2024-03-08T13:12:02;14.25;;;10.32;;
26600;SDS011;14241;49.260;10.496;2024-03-08T13:14:28;15.85;;;11.40;;
26600;SDS011;14241;49.260;10.496;2024-03-08T13:16:57;15.35;;;10.73;;
26600;SDS011;14241;49.260;10.496;2024-03-08T13:19:24;12.57;;;9.48;;
26600;SDS011;14241;49.260;10.496;2024-03-08T13:21:49;12.50;;;9.80;;
26600;SDS011;14241;49.260;10.496;2024-03-08T13:24:15;13.07;;;9.68;;
26600;SDS011;14241;49.260;10.496;2024-03-08T13:26:41;14.65;;;10.35;;
26600;SDS011;14241;49.260;10.496;2024-03-08T13:29:08;14.45;;;10.27;;
26600;SDS011;14241;49.260;10.496;2024-03-08T13:31:33;12.48;;;9.65;;
26600;SDS011;14241;49.260;10.496;2024-03-08T13:34:01;13.23;;;10.35;;
26600;SDS011;14241;49.260;10.496;2024-03-08T13:36:26;12.93;;;9.85;;
26600;SDS011;14241;49.260;10.496;2024-03-08T13:39:00;11.10;;;8.85;;
26600;SDS011;14241;49.260;10.496;2024-03-08T13:41:25;14.65;;;9.85;;
26600;SDS011;14241;49.260;10.496;2024-03-08T13:43:51;11.20;;;9.13;;
26600;SDS011;14241;49.260;10.496;2024-03-08T13:46:16;12.82;;;9.40;;
26600;SDS011;14241;49.260;10.496;2024-03-08T13:48:42;13.25;;;9.23;;
26600;SDS011;14241;49.260;10.496;2024-03-08T13:51:08;14.07;;;8.43;;
26600;SDS011;14241;49.260;10.496;2024-03-08T13:53:35;30.95;;;9.75;;
26600;SDS011;14241;49.260;10.496;2024-03-08T13:56:04;13.73;;;9.25;;
26600;SDS011;14241;49.260;10.496;2024-03-08T13:58:30;10.23;;;8.18;;
26600;SDS011;14241;49.260;10.496;2024-03-08T14:00:56;9.80;;;8.25;;
26600;SDS011;14241;49.260;10.496;2024-03-08T14:03:21;11.77;;;8.25;;
26600;SDS011;14241;49.260;10.496;2024-03-08T14:05:47;10.63;;;8.05;;
26600;SDS011;14241;49.260;10.496;2024-03-08T14:08:12;15.50;;;7.70;;